createdAt,value
2019-03-18T00:00:03.752Z,1017.32
2019-03-18T00:10:03.446Z,1017.29
2019-03-18T00:20:03.715Z,1017.24
2019-03-18T00:30:04.243Z,1017.48
2019-03-18T00:40:03.572Z,1017.40
2019-03-18T00:50:03.061Z,1017.46
2019-03-18T01:00:03.694Z,1017.50
2019-03-18T01:10:03.749Z,1017.86
2019-03-18T01:20:03.534Z,1017.73
2019-03-18T01:30:03.916Z,1017.72
2019-03-18T01:40:03.185Z,1017.76
2019-03-18T01:50:03.819Z,1017.69
2019-03-18T02:00:04.552Z,1017.65
2019-03-18T02:10:03.121Z,1017.64
2019-03-18T02:20:03.791Z,1017.70
2019-03-18T02:30:04.414Z,1017.70
2019-03-18T02:40:04.344Z,1017.79
2019-03-18T02:50:03.450Z,1017.89
2019-03-18T03:00:03.669Z,1018.11
2019-03-18T03:10:03.403Z,1018.13
2019-03-18T03:20:03.383Z,1018.05
2019-03-18T03:30:03.805Z,1018.05
2019-03-18T03:40:03.031Z,1017.86
2019-03-18T03:50:03.648Z,1017.91
2019-03-18T04:00:04.605Z,1018.09
2019-03-18T04:10:03.698Z,1017.97
2019-03-18T04:20:03.400Z,1017.94
2019-03-18T04:30:04.048Z,1017.98
2019-03-18T04:40:03.398Z,1018.19
2019-03-18T04:50:03.302Z,1018.11
2019-03-18T05:00:03.651Z,1018.31
2019-03-18T05:10:03.866Z,1018.35
2019-03-18T05:20:03.568Z,1018.47
2019-03-18T05:30:04.393Z,1018.15
2019-03-18T05:40:04.047Z,1018.28
2019-03-18T05:50:03.769Z,1018.35
2019-03-18T06:00:04.323Z,1018.48
2019-03-18T06:10:03.033Z,1018.80
2019-03-18T06:20:03.682Z,1018.73
2019-03-18T06:30:04.296Z,1018.76
2019-03-18T06:40:03.533Z,1018.78
2019-03-18T06:50:03.178Z,1018.89
2019-03-18T07:00:07.503Z,1018.94
2019-03-18T07:10:04.058Z,1019.03
2019-03-18T07:20:03.774Z,1019.20
2019-03-18T07:30:04.408Z,1019.13
2019-03-18T07:40:03.626Z,1019.30
2019-03-18T07:50:03.641Z,1019.25
2019-03-18T08:00:04.319Z,1019.31
2019-03-18T08:10:03.309Z,1019.55
2019-03-18T08:20:04.442Z,1019.73
2019-03-18T08:30:04.189Z,1019.77
2019-03-18T08:40:03.418Z,1019.86
2019-03-18T08:50:03.394Z,1019.99
2019-03-18T09:00:03.791Z,1020.14
2019-03-18T09:10:03.740Z,1020.07
2019-03-18T09:20:03.322Z,1020.19
2019-03-18T09:30:03.790Z,1020.19
2019-03-18T09:40:03.291Z,1020.31
2019-03-18T09:50:02.884Z,1020.32
2019-03-18T10:00:04.396Z,1020.19
2019-03-18T10:10:03.349Z,1020.29
2019-03-18T10:20:03.416Z,1020.36
2019-03-18T10:30:04.196Z,1020.52
2019-03-18T10:40:03.282Z,1020.53
2019-03-18T10:50:04.078Z,1020.35
2019-03-18T11:00:04.982Z,1020.52
2019-03-18T11:10:02.866Z,1020.98
2019-03-18T11:20:02.783Z,1021.28
2019-03-18T11:30:04.303Z,1021.13
2019-03-18T11:40:03.697Z,1021.01
2019-03-18T11:50:12.293Z,1020.97
2019-03-18T12:00:04.015Z,1020.86
2019-03-18T12:10:03.375Z,1020.77
2019-03-18T12:20:03.249Z,1020.86
2019-03-18T12:30:03.869Z,1020.78
2019-03-18T12:40:03.337Z,1020.67
2019-03-18T12:50:03.324Z,1020.58
2019-03-18T13:00:03.812Z,1020.64
2019-03-18T13:10:03.744Z,1020.72
2019-03-18T13:20:03.947Z,1020.80
2019-03-18T13:30:04.589Z,1020.81
2019-03-18T13:40:03.289Z,1020.83
2019-03-18T13:50:03.040Z,1020.83
2019-03-18T14:00:04.619Z,1020.86
2019-03-18T14:10:03.367Z,1020.85
2019-03-18T14:20:03.357Z,1020.92
2019-03-18T14:30:03.808Z,1020.92
2019-03-18T14:40:03.081Z,1021.10
2019-03-18T14:50:03.059Z,1021.00
2019-03-18T15:00:03.783Z,1021.06
2019-03-18T15:10:03.692Z,1021.00
2019-03-18T15:20:03.571Z,1021.08
2019-03-18T15:30:04.132Z,1021.16
2019-03-18T15:40:03.104Z,1021.31
2019-03-18T15:50:03.837Z,1021.38
2019-03-18T16:00:04.242Z,1021.50
2019-03-18T16:10:04.115Z,1021.79
2019-03-18T16:20:02.780Z,1021.86
2019-03-18T16:30:05.218Z,1021.98
2019-03-18T16:40:03.034Z,1022.11
2019-03-18T16:50:03.225Z,1022.24
2019-03-18T17:00:04.444Z,1022.33
2019-03-18T17:10:03.229Z,1022.42
2019-03-18T17:20:02.999Z,1022.45
2019-03-18T17:30:04.554Z,1022.70
2019-03-18T17:40:03.848Z,1022.93
2019-03-18T17:50:03.304Z,1023.02
2019-03-18T18:00:04.475Z,1023.02
2019-03-18T18:10:04.030Z,1023.21
2019-03-18T18:20:03.652Z,1023.30
2019-03-18T18:30:04.402Z,1023.46
2019-03-18T18:40:05.621Z,1023.45
2019-03-18T18:50:03.058Z,1023.57
2019-03-18T19:00:04.104Z,1023.63
2019-03-18T19:10:04.155Z,1023.76
2019-03-18T19:20:03.290Z,1023.85
2019-03-18T19:30:03.650Z,1023.98
2019-03-18T19:40:03.408Z,1024.15
2019-03-18T19:50:04.082Z,1024.22
2019-03-18T20:00:04.635Z,1024.28
2019-03-18T20:10:03.449Z,1024.46
2019-03-18T20:20:03.021Z,1024.61
2019-03-18T20:30:05.640Z,1024.67
2019-03-18T20:40:03.557Z,1024.69
2019-03-18T20:50:03.109Z,1024.80
2019-03-18T21:00:03.538Z,1024.86
2019-03-18T21:10:03.855Z,1024.81
2019-03-18T21:20:03.364Z,1024.95
2019-03-18T21:30:04.688Z,1025.02
2019-03-18T21:40:02.947Z,1025.05
2019-03-18T21:50:03.319Z,1024.93
2019-03-18T22:00:04.559Z,1024.99
2019-03-18T22:10:03.467Z,1025.05
2019-03-18T22:20:03.946Z,1025.07
2019-03-18T22:30:04.405Z,1025.11
2019-03-18T22:40:03.933Z,1025.19
2019-03-18T22:50:03.321Z,1025.26
2019-03-18T23:00:04.140Z,1025.31
2019-03-18T23:10:03.722Z,1025.22
2019-03-18T23:20:03.412Z,1025.23
2019-03-18T23:30:03.669Z,1025.29
2019-03-18T23:40:03.713Z,1025.28
2019-03-18T23:50:03.290Z,1025.38
